sensor_id;sensor_type;location;lat;lon;timestamp;temperature;humidity
47516;DHT22;33249;51.990;5.840;2022-07-17T00:00:38;14.20;99.90
47516;DHT22;33249;51.990;5.840;2022-07-17T00:03:14;14.10;99.90
47516;DHT22;33249;51.990;5.840;2022-07-17T00:05:41;14.10;99.90
47516;DHT22;33249;51.990;5.840;2022-07-17T00:08:08;14.10;99.90
47516;DHT22;33249;51.990;5.840;2022-07-17T00:10:34;14.20;99.90
47516;DHT22;33249;51.990;5.840;2022-07-17T00:13:01;14.10;99.90
47516;DHT22;33249;51.990;5.840;2022-07-17T00:15:27;14.00;99.90
47516;DHT22;33249;51.990;5.840;2022-07-17T00:17:53;14.00;99.90
47516;DHT22;33249;51.990;5.840;2022-07-17T00:20:19;14.00;99.90
47516;DHT22;33249;51.990;5.840;2022-07-17T00:22:45;14.00;99.90
47516;DHT22;33249;51.990;5.840;2022-07-17T00:25:12;13.90;99.90
47516;DHT22;33249;51.990;5.840;2022-07-17T00:27:38;13.90;99.90
47516;DHT22;33249;51.990;5.840;2022-07-17T00:30:05;13.80;99.90
47516;DHT22;33249;51.990;5.840;2022-07-17T00:32:33;13.90;99.90
47516;DHT22;33249;51.990;5.840;2022-07-17T00:34:59;13.90;99.90
47516;DHT22;33249;51.990;5.840;2022-07-17T00:37:25;13.90;99.90
47516;DHT22;33249;51.990;5.840;2022-07-17T00:39:51;13.90;99.90
47516;DHT22;33249;51.990;5.840;2022-07-17T00:42:17;13.80;99.90
47516;DHT22;33249;51.990;5.840;2022-07-17T00:44:43;13.80;99.90
47516;DHT22;33249;51.990;5.840;2022-07-17T00:47:13;13.80;99.90
47516;DHT22;33249;51.990;5.840;2022-07-17T00:49:40;13.80;99.90
47516;DHT22;33249;51.990;5.840;2022-07-17T00:52:06;13.80;99.90
47516;DHT22;33249;51.990;5.840;2022-07-17T00:54:34;13.80;99.90
47516;DHT22;33249;51.990;5.840;2022-07-17T00:57:00;13.90;99.90
47516;DHT22;33249;51.990;5.840;2022-07-17T00:59:26;13.80;99.90
47516;DHT22;33249;51.990;5.840;2022-07-17T01:01:53;13.80;99.90
47516;DHT22;33249;51.990;5.840;2022-07-17T01:04:19;13.80;99.90
47516;DHT22;33249;51.990;5.840;2022-07-17T01:06:45;13.80;99.90
47516;DHT22;33249;51.990;5.840;2022-07-17T01:09:11;13.80;99.90
47516;DHT22;33249;51.990;5.840;2022-07-17T01:11:37;13.70;99.90
47516;DHT22;33249;51.990;5.840;2022-07-17T01:14:03;13.60;99.90
47516;DHT22;33249;51.990;5.840;2022-07-17T01:16:29;13.70;99.90
47516;DHT22;33249;51.990;5.840;2022-07-17T01:18:55;13.60;99.90
47516;DHT22;33249;51.990;5.840;2022-07-17T01:21:21;13.60;99.90
47516;DHT22;33249;51.990;5.840;2022-07-17T01:23:47;13.70;99.90
47516;DHT22;33249;51.990;5.840;2022-07-17T01:26:13;13.70;99.90
47516;DHT22;33249;51.990;5.840;2022-07-17T01:28:39;13.70;99.90
47516;DHT22;33249;51.990;5.840;2022-07-17T01:31:05;13.80;99.90
47516;DHT22;33249;51.990;5.840;2022-07-17T01:33:31;13.90;99.90
47516;DHT22;33249;51.990;5.840;2022-07-17T01:35:57;13.70;99.90
47516;DHT22;33249;51.990;5.840;2022-07-17T01:38:23;13.70;99.90
47516;DHT22;33249;51.990;5.840;2022-07-17T01:40:49;13.70;99.90
47516;DHT22;33249;51.990;5.840;2022-07-17T01:43:17;13.60;99.90
47516;DHT22;33249;51.990;5.840;2022-07-17T01:45:43;13.70;99.90
47516;DHT22;33249;51.990;5.840;2022-07-17T01:48:09;13.80;99.90
47516;DHT22;33249;51.990;5.840;2022-07-17T01:50:35;13.70;99.90
47516;DHT22;33249;51.990;5.840;2022-07-17T01:53:02;13.70;99.90
47516;DHT22;33249;51.990;5.840;2022-07-17T01:55:28;13.50;99.90
47516;DHT22;33249;51.990;5.840;2022-07-17T01:57:54;13.50;99.90
47516;DHT22;33249;51.990;5.840;2022-07-17T02:00:20;13.40;99.90
47516;DHT22;33249;51.990;5.840;2022-07-17T02:02:49;13.30;99.90
47516;DHT22;33249;51.990;5.840;2022-07-17T02:05:15;13.30;99.90
47516;DHT22;33249;51.990;5.840;2022-07-17T02:07:41;13.40;99.90
47516;DHT22;33249;51.990;5.840;2022-07-17T02:10:09;13.40;99.90
47516;DHT22;33249;51.990;5.840;2022-07-17T02:12:35;13.40;99.90
47516;DHT22;33249;51.990;5.840;2022-07-17T02:15:02;13.30;99.90
47516;DHT22;33249;51.990;5.840;2022-07-17T02:17:28;13.20;99.90
47516;DHT22;33249;51.990;5.840;2022-07-17T02:19:54;13.10;99.90
47516;DHT22;33249;51.990;5.840;2022-07-17T02:22:19;13.00;99.90
47516;DHT22;33249;51.990;5.840;2022-07-17T02:24:45;12.90;99.90
47516;DHT22;33249;51.990;5.840;2022-07-17T02:27:11;12.90;99.90
47516;DHT22;33249;51.990;5.840;2022-07-17T02:29:37;12.70;99.90
47516;DHT22;33249;51.990;5.840;2022-07-17T02:32:03;12.80;99.90
47516;DHT22;33249;51.990;5.840;2022-07-17T02:34:30;12.70;99.90
47516;DHT22;33249;51.990;5.840;2022-07-17T02:36:57;12.80;99.90
47516;DHT22;33249;51.990;5.840;2022-07-17T02:39:23;12.80;99.90
47516;DHT22;33249;51.990;5.840;2022-07-17T02:41:48;12.80;99.90
47516;DHT22;33249;51.990;5.840;2022-07-17T02:44:14;12.90;99.90
47516;DHT22;33249;51.990;5.840;2022-07-17T02:46:40;12.90;99.90
47516;DHT22;33249;51.990;5.840;2022-07-17T02:49:06;12.70;99.90
47516;DHT22;33249;51.990;5.840;2022-07-17T02:51:32;12.60;99.90
47516;DHT22;33249;51.990;5.840;2022-07-17T02:54:00;12.60;99.90
47516;DHT22;33249;51.990;5.840;2022-07-17T02:56:25;12.60;99.90
47516;DHT22;33249;51.990;5.840;2022-07-17T02:58:51;12.60;99.90
47516;DHT22;33249;51.990;5.840;2022-07-17T03:01:17;12.60;99.90
47516;DHT22;33249;51.990;5.840;2022-07-17T03:03:43;12.60;99.90
47516;DHT22;33249;51.990;5.840;2022-07-17T03:06:09;12.50;99.90
47516;DHT22;33249;51.990;5.840;2022-07-17T03:08:35;12.40;99.90
47516;DHT22;33249;51.990;5.840;2022-07-17T03:11:01;12.30;99.90
47516;DHT22;33249;51.990;5.840;2022-07-17T03:13:27;12.20;99.90
47516;DHT22;33249;51.990;5.840;2022-07-17T03:15:53;12.20;99.90
47516;DHT22;33249;51.990;5.840;2022-07-17T03:18:19;12.20;99.90
47516;DHT22;33249;51.990;5.840;2022-07-17T03:20:45;12.20;99.90
47516;DHT22;33249;51.990;5.840;2022-07-17T03:23:11;12.20;99.90
47516;DHT22;33249;51.990;5.840;2022-07-17T03:25:37;12.20;99.90
47516;DHT22;33249;51.990;5.840;2022-07-17T03:28:03;12.20;99.90
47516;DHT22;33249;51.990;5.840;2022-07-17T03:30:29;12.20;99.90
47516;DHT22;33249;51.990;5.840;2022-07-17T03:32:55;12.10;99.90
47516;DHT22;33249;51.990;5.840;2022-07-17T03:35:21;11.90;99.90
47516;DHT22;33249;51.990;5.840;2022-07-17T03:37:47;11.80;99.90
47516;DHT22;33249;51.990;5.840;2022-07-17T03:40:13;11.80;99.90
47516;DHT22;33249;51.990;5.840;2022-07-17T03:42:39;11.80;99.90
47516;DHT22;33249;51.990;5.840;2022-07-17T03:45:05;11.80;99.90
47516;DHT22;33249;51.990;5.840;2022-07-17T03:47:31;12.20;99.90
47516;DHT22;33249;51.990;5.840;2022-07-17T03:49:57;12.20;99.90
47516;DHT22;33249;51.990;5.840;2022-07-17T03:52:23;12.30;99.90
47516;DHT22;33249;51.990;5.840;2022-07-17T03:54:49;12.30;99.90
47516;DHT22;33249;51.990;5.840;2022-07-17T03:57:15;12.30;99.90
47516;DHT22;33249;51.990;5.840;2022-07-17T03:59:41;12.40;99.90
47516;DHT22;33249;51.990;5.840;2022-07-17T04:02:07;12.40;99.90
47516;DHT22;33249;51.990;5.840;2022-07-17T04:04:32;12.50;99.90
47516;DHT22;33249;51.990;5.840;2022-07-17T04:06:58;12.50;99.90
47516;DHT22;33249;51.990;5.840;2022-07-17T04:09:24;12.50;99.90
47516;DHT22;33249;51.990;5.840;2022-07-17T04:11:50;12.60;99.90
47516;DHT22;33249;51.990;5.840;2022-07-17T04:14:16;12.70;99.90
47516;DHT22;33249;51.990;5.840;2022-07-17T04:16:42;12.60;99.90
47516;DHT22;33249;51.990;5.840;2022-07-17T04:19:08;12.30;99.90
47516;DHT22;33249;51.990;5.840;2022-07-17T04:21:34;12.30;99.90
47516;DHT22;33249;51.990;5.840;2022-07-17T04:24:01;12.20;99.90
47516;DHT22;33249;51.990;5.840;2022-07-17T04:26:27;12.10;99.90
47516;DHT22;33249;51.990;5.840;2022-07-17T04:28:53;12.00;99.90
47516;DHT22;33249;51.990;5.840;2022-07-17T04:31:19;11.90;99.90
47516;DHT22;33249;51.990;5.840;2022-07-17T04:33:45;12.00;99.90
47516;DHT22;33249;51.990;5.840;2022-07-17T04:36:11;12.20;99.90
47516;DHT22;33249;51.990;5.840;2022-07-17T04:38:37;12.20;99.90
47516;DHT22;33249;51.990;5.840;2022-07-17T04:41:03;12.20;99.90
47516;DHT22;33249;51.990;5.840;2022-07-17T04:43:29;12.10;99.90
47516;DHT22;33249;51.990;5.840;2022-07-17T04:45:55;12.20;99.90
47516;DHT22;33249;51.990;5.840;2022-07-17T04:48:21;12.30;99.90
47516;DHT22;33249;51.990;5.840;2022-07-17T04:50:47;12.20;99.90
47516;DHT22;33249;51.990;5.840;2022-07-17T04:53:13;12.30;99.90
47516;DHT22;33249;51.990;5.840;2022-07-17T04:55:39;12.40;99.90
47516;DHT22;33249;51.990;5.840;2022-07-17T04:58:05;12.50;99.90
47516;DHT22;33249;51.990;5.840;2022-07-17T05:00:31;12.50;99.90
47516;DHT22;33249;51.990;5.840;2022-07-17T05:02:57;12.60;99.90
47516;DHT22;33249;51.990;5.840;2022-07-17T05:05:23;12.50;99.90
47516;DHT22;33249;51.990;5.840;2022-07-17T05:07:49;12.50;99.90
47516;DHT22;33249;51.990;5.840;2022-07-17T05:10:15;12.40;99.90
47516;DHT22;33249;51.990;5.840;2022-07-17T05:12:41;12.50;99.90
47516;DHT22;33249;51.990;5.840;2022-07-17T05:15:07;12.60;99.90
47516;DHT22;33249;51.990;5.840;2022-07-17T05:17:33;13.10;99.90
47516;DHT22;33249;51.990;5.840;2022-07-17T05:19:59;13.30;99.90
47516;DHT22;33249;51.990;5.840;2022-07-17T05:22:25;13.30;99.90
47516;DHT22;33249;51.990;5.840;2022-07-17T05:24:50;13.50;99.90
47516;DHT22;33249;51.990;5.840;2022-07-17T05:27:16;13.80;99.90
47516;DHT22;33249;51.990;5.840;2022-07-17T05:29:42;13.90;99.90
47516;DHT22;33249;51.990;5.840;2022-07-17T05:32:08;13.90;99.90
47516;DHT22;33249;51.990;5.840;2022-07-17T05:34:34;14.00;99.90
47516;DHT22;33249;51.990;5.840;2022-07-17T05:37:00;14.10;99.90
47516;DHT22;33249;51.990;5.840;2022-07-17T05:39:26;14.50;99.90
47516;DHT22;33249;51.990;5.840;2022-07-17T05:41:52;14.90;99.90
47516;DHT22;33249;51.990;5.840;2022-07-17T05:44:18;15.10;99.90
47516;DHT22;33249;51.990;5.840;2022-07-17T05:46:44;15.10;99.90
47516;DHT22;33249;51.990;5.840;2022-07-17T05:49:11;15.30;99.90
47516;DHT22;33249;51.990;5.840;2022-07-17T05:51:37;15.40;99.90
47516;DHT22;33249;51.990;5.840;2022-07-17T05:54:03;15.40;99.90
47516;DHT22;33249;51.990;5.840;2022-07-17T05:56:29;15.40;99.90
47516;DHT22;33249;51.990;5.840;2022-07-17T05:58:55;15.60;99.90
47516;DHT22;33249;51.990;5.840;2022-07-17T06:01:21;15.90;99.90
47516;DHT22;33249;51.990;5.840;2022-07-17T06:03:47;16.10;99.90
47516;DHT22;33249;51.990;5.840;2022-07-17T06:06:12;16.60;99.90
47516;DHT22;33249;51.990;5.840;2022-07-17T06:08:38;16.60;99.90
47516;DHT22;33249;51.990;5.840;2022-07-17T06:11:04;16.80;99.90
47516;DHT22;33249;51.990;5.840;2022-07-17T06:13:30;17.00;99.90
47516;DHT22;33249;51.990;5.840;2022-07-17T06:15:56;16.90;99.90
47516;DHT22;33249;51.990;5.840;2022-07-17T06:18:24;16.70;99.90
47516;DHT22;33249;51.990;5.840;2022-07-17T06:20:50;16.30;99.90
47516;DHT22;33249;51.990;5.840;2022-07-17T06:23:16;16.30;99.90
47516;DHT22;33249;51.990;5.840;2022-07-17T06:25:42;16.10;99.90
47516;DHT22;33249;51.990;5.840;2022-07-17T06:28:12;16.20;99.90
47516;DHT22;33249;51.990;5.840;2022-07-17T06:30:39;16.10;99.90
47516;DHT22;33249;51.990;5.840;2022-07-17T06:33:05;16.10;99.90
47516;DHT22;33249;51.990;5.840;2022-07-17T06:35:31;16.10;99.90
47516;DHT22;33249;51.990;5.840;2022-07-17T06:37:59;16.30;99.90
47516;DHT22;33249;51.990;5.840;2022-07-17T06:40:25;16.30;99.90
47516;DHT22;33249;51.990;5.840;2022-07-17T06:42:51;16.20;99.90
47516;DHT22;33249;51.990;5.840;2022-07-17T06:45:17;16.20;99.90
47516;DHT22;33249;51.990;5.840;2022-07-17T06:47:43;16.30;99.90
47516;DHT22;33249;51.990;5.840;2022-07-17T06:50:12;16.40;99.90
47516;DHT22;33249;51.990;5.840;2022-07-17T06:52:41;16.30;99.90
47516;DHT22;33249;51.990;5.840;2022-07-17T06:55:16;16.50;99.90
47516;DHT22;33249;51.990;5.840;2022-07-17T06:57:42;16.40;99.90
47516;DHT22;33249;51.990;5.840;2022-07-17T07:00:08;16.30;99.90
47516;DHT22;33249;51.990;5.840;2022-07-17T07:02:34;16.30;99.90
47516;DHT22;33249;51.990;5.840;2022-07-17T07:05:00;16.50;99.90
47516;DHT22;33249;51.990;5.840;2022-07-17T07:07:26;16.60;99.90
47516;DHT22;33249;51.990;5.840;2022-07-17T07:09:52;16.60;99.90
47516;DHT22;33249;51.990;5.840;2022-07-17T07:12:21;16.70;99.90
47516;DHT22;33249;51.990;5.840;2022-07-17T07:14:46;16.70;99.90
47516;DHT22;33249;51.990;5.840;2022-07-17T07:17:12;16.80;99.90
47516;DHT22;33249;51.990;5.840;2022-07-17T07:19:38;17.10;99.90
47516;DHT22;33249;51.990;5.840;2022-07-17T07:22:04;17.00;99.90
47516;DHT22;33249;51.990;5.840;2022-07-17T07:24:30;17.10;99.80
47516;DHT22;33249;51.990;5.840;2022-07-17T07:26:56;17.10;99.90
47516;DHT22;33249;51.990;5.840;2022-07-17T07:29:22;16.90;99.90
47516;DHT22;33249;51.990;5.840;2022-07-17T07:31:48;16.90;99.90
47516;DHT22;33249;51.990;5.840;2022-07-17T07:34:14;17.00;99.90
47516;DHT22;33249;51.990;5.840;2022-07-17T07:36:40;17.00;99.90
47516;DHT22;33249;51.990;5.840;2022-07-17T07:39:06;17.10;99.90
47516;DHT22;33249;51.990;5.840;2022-07-17T07:41:32;17.30;99.90
47516;DHT22;33249;51.990;5.840;2022-07-17T07:43:58;17.40;99.90
47516;DHT22;33249;51.990;5.840;2022-07-17T07:46:24;17.60;99.90
47516;DHT22;33249;51.990;5.840;2022-07-17T07:48:56;17.50;99.90
47516;DHT22;33249;51.990;5.840;2022-07-17T07:51:24;17.70;99.90
47516;DHT22;33249;51.990;5.840;2022-07-17T07:53:57;17.80;99.60
47516;DHT22;33249;51.990;5.840;2022-07-17T07:56:31;17.80;99.70
47516;DHT22;33249;51.990;5.840;2022-07-17T07:59:04;17.80;99.90
47516;DHT22;33249;51.990;5.840;2022-07-17T08:01:36;18.00;99.50
47516;DHT22;33249;51.990;5.840;2022-07-17T08:04:12;18.10;99.10
47516;DHT22;33249;51.990;5.840;2022-07-17T08:06:41;18.00;98.80
47516;DHT22;33249;51.990;5.840;2022-07-17T08:09:07;18.30;99.50
47516;DHT22;33249;51.990;5.840;2022-07-17T08:11:37;18.80;97.50
47516;DHT22;33249;51.990;5.840;2022-07-17T08:14:08;19.00;97.60
47516;DHT22;33249;51.990;5.840;2022-07-17T08:16:37;20.00;96.40
47516;DHT22;33249;51.990;5.840;2022-07-17T08:19:06;21.50;95.40
47516;DHT22;33249;51.990;5.840;2022-07-17T08:21:34;22.00;93.30
47516;DHT22;33249;51.990;5.840;2022-07-17T08:24:00;22.20;92.20
47516;DHT22;33249;51.990;5.840;2022-07-17T08:26:26;22.80;91.90
47516;DHT22;33249;51.990;5.840;2022-07-17T08:28:57;23.00;90.60
47516;DHT22;33249;51.990;5.840;2022-07-17T08:31:39;23.40;90.50
47516;DHT22;33249;51.990;5.840;2022-07-17T08:34:20;23.90;89.00
47516;DHT22;33249;51.990;5.840;2022-07-17T09:09:42;25.20;82.80
47516;DHT22;33249;51.990;5.840;2022-07-17T09:30:27;25.80;78.80
47516;DHT22;33249;51.990;5.840;2022-07-17T09:33:14;25.30;79.50
47516;DHT22;33249;51.990;5.840;2022-07-17T09:35:56;26.00;81.10
47516;DHT22;33249;51.990;5.840;2022-07-17T09:38:42;25.90;79.20
47516;DHT22;33249;51.990;5.840;2022-07-17T09:46:22;26.70;80.50
47516;DHT22;33249;51.990;5.840;2022-07-17T09:49:14;27.20;78.00
47516;DHT22;33249;51.990;5.840;2022-07-17T09:55:16;26.10;77.20
47516;DHT22;33249;51.990;5.840;2022-07-17T09:57:58;25.90;77.50
47516;DHT22;33249;51.990;5.840;2022-07-17T10:01:08;24.50;79.40
47516;DHT22;33249;51.990;5.840;2022-07-17T10:03:35;24.80;81.90
47516;DHT22;33249;51.990;5.840;2022-07-17T10:06:04;24.90;80.10
47516;DHT22;33249;51.990;5.840;2022-07-17T10:08:33;25.50;80.70
47516;DHT22;33249;51.990;5.840;2022-07-17T10:11:08;25.40;79.70
47516;DHT22;33249;51.990;5.840;2022-07-17T10:13:44;25.20;78.40
47516;DHT22;33249;51.990;5.840;2022-07-17T10:16:29;24.60;81.30
47516;DHT22;33249;51.990;5.840;2022-07-17T10:18:59;24.60;81.40
47516;DHT22;33249;51.990;5.840;2022-07-17T10:21:29;25.50;81.40
47516;DHT22;33249;51.990;5.840;2022-07-17T10:24:07;26.20;79.80
47516;DHT22;33249;51.990;5.840;2022-07-17T10:26:42;25.60;76.30
47516;DHT22;33249;51.990;5.840;2022-07-17T10:32:03;24.20;78.90
47516;DHT22;33249;51.990;5.840;2022-07-17T10:34:46;25.10;79.80
47516;DHT22;33249;51.990;5.840;2022-07-17T10:37:24;25.20;78.70
47516;DHT22;33249;51.990;5.840;2022-07-17T10:39:55;24.80;79.20
47516;DHT22;33249;51.990;5.840;2022-07-17T10:48:09;25.80;81.00
47516;DHT22;33249;51.990;5.840;2022-07-17T10:50:37;25.30;81.40
47516;DHT22;33249;51.990;5.840;2022-07-17T10:53:07;24.90;79.50
47516;DHT22;33249;51.990;5.840;2022-07-17T10:55:36;25.50;79.50
47516;DHT22;33249;51.990;5.840;2022-07-17T10:58:03;25.50;81.90
47516;DHT22;33249;51.990;5.840;2022-07-17T11:00:35;25.40;82.50
47516;DHT22;33249;51.990;5.840;2022-07-17T11:03:12;26.00;83.70
47516;DHT22;33249;51.990;5.840;2022-07-17T11:05:42;27.10;80.10
47516;DHT22;33249;51.990;5.840;2022-07-17T11:08:13;27.60;78.40
47516;DHT22;33249;51.990;5.840;2022-07-17T11:10:40;27.70;78.20
47516;DHT22;33249;51.990;5.840;2022-07-17T11:13:13;26.70;77.90
47516;DHT22;33249;51.990;5.840;2022-07-17T11:15:43;26.10;79.60
47516;DHT22;33249;51.990;5.840;2022-07-17T11:18:16;26.10;80.60
47516;DHT22;33249;51.990;5.840;2022-07-17T11:20:50;25.70;81.00
47516;DHT22;33249;51.990;5.840;2022-07-17T11:23:17;25.80;81.30
47516;DHT22;33249;51.990;5.840;2022-07-17T11:25:53;25.80;81.80
47516;DHT22;33249;51.990;5.840;2022-07-17T11:31:27;25.80;81.60
47516;DHT22;33249;51.990;5.840;2022-07-17T11:33:57;25.70;79.60
47516;DHT22;33249;51.990;5.840;2022-07-17T11:36:30;25.80;79.70
47516;DHT22;33249;51.990;5.840;2022-07-17T11:39:02;25.70;78.70
47516;DHT22;33249;51.990;5.840;2022-07-17T11:41:35;25.70;79.80
47516;DHT22;33249;51.990;5.840;2022-07-17T11:44:05;25.60;78.60
47516;DHT22;33249;51.990;5.840;2022-07-17T11:46:33;25.30;79.90
47516;DHT22;33249;51.990;5.840;2022-07-17T11:49:23;25.30;80.60
47516;DHT22;33249;51.990;5.840;2022-07-17T11:51:56;25.50;79.40
47516;DHT22;33249;51.990;5.840;2022-07-17T11:54:25;26.00;79.90
47516;DHT22;33249;51.990;5.840;2022-07-17T11:56:55;26.50;81.20
47516;DHT22;33249;51.990;5.840;2022-07-17T11:59:27;27.10;79.80
47516;DHT22;33249;51.990;5.840;2022-07-17T12:01:56;26.50;81.40
47516;DHT22;33249;51.990;5.840;2022-07-17T12:04:22;26.50;80.00
47516;DHT22;33249;51.990;5.840;2022-07-17T12:06:59;26.60;79.50
47516;DHT22;33249;51.990;5.840;2022-07-17T12:09:31;27.00;80.80
47516;DHT22;33249;51.990;5.840;2022-07-17T12:12:01;27.30;76.30
47516;DHT22;33249;51.990;5.840;2022-07-17T12:14:58;26.60;78.30
47516;DHT22;33249;51.990;5.840;2022-07-17T12:17:42;26.40;80.40
47516;DHT22;33249;51.990;5.840;2022-07-17T12:20:20;26.40;80.40
47516;DHT22;33249;51.990;5.840;2022-07-17T12:22:49;27.00;79.70
47516;DHT22;33249;51.990;5.840;2022-07-17T12:25:26;27.00;79.50
47516;DHT22;33249;51.990;5.840;2022-07-17T12:28:09;26.60;77.30
47516;DHT22;33249;51.990;5.840;2022-07-17T12:30:37;26.40;78.40
47516;DHT22;33249;51.990;5.840;2022-07-17T12:33:11;26.30;79.30
47516;DHT22;33249;51.990;5.840;2022-07-17T12:35:46;26.00;79.10
47516;DHT22;33249;51.990;5.840;2022-07-17T12:38:16;26.80;81.80
47516;DHT22;33249;51.990;5.840;2022-07-17T12:40:42;27.20;79.10
47516;DHT22;33249;51.990;5.840;2022-07-17T12:43:14;26.80;77.30
47516;DHT22;33249;51.990;5.840;2022-07-17T12:45:57;26.60;80.10
47516;DHT22;33249;51.990;5.840;2022-07-17T12:48:31;26.30;77.90
47516;DHT22;33249;51.990;5.840;2022-07-17T12:50:57;26.60;79.80
47516;DHT22;33249;51.990;5.840;2022-07-17T12:53:32;26.60;79.80
47516;DHT22;33249;51.990;5.840;2022-07-17T12:55:58;26.70;80.00
47516;DHT22;33249;51.990;5.840;2022-07-17T12:58:24;26.60;79.10
47516;DHT22;33249;51.990;5.840;2022-07-17T13:00:56;26.70;77.60
47516;DHT22;33249;51.990;5.840;2022-07-17T13:03:31;26.60;78.00
47516;DHT22;33249;51.990;5.840;2022-07-17T13:05:58;26.20;81.50
47516;DHT22;33249;51.990;5.840;2022-07-17T13:08:26;26.10;79.00
47516;DHT22;33249;51.990;5.840;2022-07-17T13:10:56;26.00;78.60
47516;DHT22;33249;51.990;5.840;2022-07-17T13:13:31;26.00;79.40
47516;DHT22;33249;51.990;5.840;2022-07-17T13:15:59;26.10;81.80
47516;DHT22;33249;51.990;5.840;2022-07-17T13:18:25;26.10;79.70
47516;DHT22;33249;51.990;5.840;2022-07-17T13:20:51;26.00;78.30
47516;DHT22;33249;51.990;5.840;2022-07-17T13:23:21;26.00;80.00
47516;DHT22;33249;51.990;5.840;2022-07-17T13:25:49;26.10;78.00
47516;DHT22;33249;51.990;5.840;2022-07-17T13:28:15;25.90;79.30
47516;DHT22;33249;51.990;5.840;2022-07-17T13:30:49;26.20;78.10
47516;DHT22;33249;51.990;5.840;2022-07-17T13:33:18;26.10;79.00
47516;DHT22;33249;51.990;5.840;2022-07-17T13:35:53;26.10;77.40
47516;DHT22;33249;51.990;5.840;2022-07-17T13:38:21;26.00;78.80
47516;DHT22;33249;51.990;5.840;2022-07-17T13:40:53;26.20;83.00
47516;DHT22;33249;51.990;5.840;2022-07-17T13:43:29;25.90;78.20
47516;DHT22;33249;51.990;5.840;2022-07-17T13:45:58;26.00;81.00
47516;DHT22;33249;51.990;5.840;2022-07-17T13:48:28;25.80;79.00
47516;DHT22;33249;51.990;5.840;2022-07-17T13:50:57;26.30;79.00
47516;DHT22;33249;51.990;5.840;2022-07-17T13:53:26;26.10;76.70
47516;DHT22;33249;51.990;5.840;2022-07-17T13:55:53;26.00;76.70
47516;DHT22;33249;51.990;5.840;2022-07-17T13:58:24;25.80;76.20
47516;DHT22;33249;51.990;5.840;2022-07-17T14:00:53;25.80;76.80
47516;DHT22;33249;51.990;5.840;2022-07-17T14:03:19;26.00;78.60
47516;DHT22;33249;51.990;5.840;2022-07-17T14:05:48;26.10;79.20
47516;DHT22;33249;51.990;5.840;2022-07-17T14:08:17;25.90;77.80
47516;DHT22;33249;51.990;5.840;2022-07-17T14:10:46;25.80;77.00
47516;DHT22;33249;51.990;5.840;2022-07-17T14:13:18;25.80;74.60
47516;DHT22;33249;51.990;5.840;2022-07-17T14:15:47;25.70;73.90
47516;DHT22;33249;51.990;5.840;2022-07-17T14:18:25;25.50;76.90
47516;DHT22;33249;51.990;5.840;2022-07-17T14:20:56;25.40;75.50
47516;DHT22;33249;51.990;5.840;2022-07-17T14:23:25;25.30;78.60
47516;DHT22;33249;51.990;5.840;2022-07-17T14:26:19;25.40;75.00
47516;DHT22;33249;51.990;5.840;2022-07-17T14:28:51;25.40;75.90
47516;DHT22;33249;51.990;5.840;2022-07-17T14:31:20;25.50;74.60
47516;DHT22;33249;51.990;5.840;2022-07-17T14:33:47;25.50;75.40
47516;DHT22;33249;51.990;5.840;2022-07-17T14:36:15;25.40;76.50
47516;DHT22;33249;51.990;5.840;2022-07-17T14:38:44;25.20;75.00
47516;DHT22;33249;51.990;5.840;2022-07-17T14:41:14;25.30;76.80
47516;DHT22;33249;51.990;5.840;2022-07-17T14:43:51;25.30;79.00
47516;DHT22;33249;51.990;5.840;2022-07-17T14:46:22;25.50;75.70
47516;DHT22;33249;51.990;5.840;2022-07-17T14:48:54;25.40;75.50
47516;DHT22;33249;51.990;5.840;2022-07-17T14:51:24;25.40;76.40
47516;DHT22;33249;51.990;5.840;2022-07-17T14:53:54;25.40;75.60
47516;DHT22;33249;51.990;5.840;2022-07-17T14:56:23;25.40;77.30
47516;DHT22;33249;51.990;5.840;2022-07-17T14:58:55;25.60;79.20
47516;DHT22;33249;51.990;5.840;2022-07-17T15:01:26;25.60;75.80
47516;DHT22;33249;51.990;5.840;2022-07-17T15:03:54;25.50;75.50
47516;DHT22;33249;51.990;5.840;2022-07-17T15:06:24;25.60;75.30
47516;DHT22;33249;51.990;5.840;2022-07-17T15:08:52;25.50;74.80
47516;DHT22;33249;51.990;5.840;2022-07-17T15:11:26;25.50;74.90
47516;DHT22;33249;51.990;5.840;2022-07-17T15:14:00;25.50;76.10
47516;DHT22;33249;51.990;5.840;2022-07-17T15:16:26;25.30;77.30
47516;DHT22;33249;51.990;5.840;2022-07-17T15:18:52;25.30;76.90
47516;DHT22;33249;51.990;5.840;2022-07-17T15:21:21;25.50;75.20
47516;DHT22;33249;51.990;5.840;2022-07-17T15:24:11;25.50;76.00
47516;DHT22;33249;51.990;5.840;2022-07-17T15:26:50;25.40;76.00
47516;DHT22;33249;51.990;5.840;2022-07-17T15:29:28;25.40;73.20
47516;DHT22;33249;51.990;5.840;2022-07-17T15:31:57;25.30;75.10
47516;DHT22;33249;51.990;5.840;2022-07-17T15:34:26;25.40;72.40
47516;DHT22;33249;51.990;5.840;2022-07-17T15:36:54;25.40;74.00
47516;DHT22;33249;51.990;5.840;2022-07-17T15:39:25;25.50;75.80
47516;DHT22;33249;51.990;5.840;2022-07-17T15:41:54;25.40;74.00
47516;DHT22;33249;51.990;5.840;2022-07-17T15:44:24;25.20;74.10
47516;DHT22;33249;51.990;5.840;2022-07-17T15:46:52;25.30;76.30
47516;DHT22;33249;51.990;5.840;2022-07-17T15:49:19;25.40;75.00
47516;DHT22;33249;51.990;5.840;2022-07-17T15:51:48;25.30;73.90
47516;DHT22;33249;51.990;5.840;2022-07-17T15:54:17;25.30;75.80
47516;DHT22;33249;51.990;5.840;2022-07-17T15:56:46;25.40;75.00
47516;DHT22;33249;51.990;5.840;2022-07-17T15:59:14;25.60;78.10
47516;DHT22;33249;51.990;5.840;2022-07-17T16:01:40;25.40;73.80
47516;DHT22;33249;51.990;5.840;2022-07-17T16:04:15;25.30;76.50
47516;DHT22;33249;51.990;5.840;2022-07-17T16:06:49;25.30;74.30
47516;DHT22;33249;51.990;5.840;2022-07-17T16:09:20;25.30;74.00
47516;DHT22;33249;51.990;5.840;2022-07-17T16:11:48;25.10;73.60
47516;DHT22;33249;51.990;5.840;2022-07-17T16:14:17;25.10;72.80
47516;DHT22;33249;51.990;5.840;2022-07-17T16:16:47;25.20;75.30
47516;DHT22;33249;51.990;5.840;2022-07-17T16:19:18;25.40;72.00
47516;DHT22;33249;51.990;5.840;2022-07-17T16:21:51;25.30;71.30
47516;DHT22;33249;51.990;5.840;2022-07-17T16:24:20;25.20;73.10
47516;DHT22;33249;51.990;5.840;2022-07-17T16:26:58;25.10;73.90
47516;DHT22;33249;51.990;5.840;2022-07-17T16:29:27;25.20;72.50
47516;DHT22;33249;51.990;5.840;2022-07-17T16:31:53;25.20;72.40
47516;DHT22;33249;51.990;5.840;2022-07-17T16:34:22;25.10;72.50
47516;DHT22;33249;51.990;5.840;2022-07-17T16:36:53;25.10;71.00
47516;DHT22;33249;51.990;5.840;2022-07-17T16:39:20;25.20;70.40
47516;DHT22;33249;51.990;5.840;2022-07-17T16:41:52;25.30;68.70
47516;DHT22;33249;51.990;5.840;2022-07-17T16:44:21;25.30;71.70
47516;DHT22;33249;51.990;5.840;2022-07-17T16:46:47;25.20;70.70
47516;DHT22;33249;51.990;5.840;2022-07-17T16:49:23;25.10;71.00
47516;DHT22;33249;51.990;5.840;2022-07-17T16:51:52;25.10;71.90